Time;durP1;ratioP1;P1;durP2;ratioP2;P2;SDS_P1;SDS_P2;PMS_P1;PMS_P2;Temp;Humidity;BMP_temperature;BMP_pressure;BME280_temperature;BME280_humidity;BME280_pressure;Samples;Min_cycle;Max_cycle;Signal;HPM_P1;HPM_P2
2021/06/02 00:02:13;;;;;;;8.57;5.72;;;;;;;;;;5034192;28;20022;-63
2021/06/02 00:04:46;;;;;;;13.38;7.90;;;;;;;;;;5034421;28;20029;-62
2021/06/02 00:07:16;;;;;;;7.90;6.65;;;;;;;;;;5033822;28;20017;-63
2021/06/02 00:09:42;;;;;;;8.57;7.68;;;;;;;;;;5033624;28;20405;-63
2021/06/02 00:12:11;;;;;;;10.73;7.70;;;;;;;;;;5033830;28;20575;-63
2021/06/02 00:14:41;;;;;;;11.25;7.72;;;;;;;;;;5030322;28;20523;-63
2021/06/02 00:17:11;;;;;;;11.88;7.18;;;;;;;;;;5034796;28;20075;-63
2021/06/02 00:19:37;;;;;;;10.40;7.10;;;;;;;;;;5036152;28;20416;-62
2021/06/02 00:22:04;;;;;;;9.38;6.90;;;;;;;;;;5033962;28;20068;-63
2021/06/02 00:24:34;;;;;;;9.43;7.03;;;;;;;;;;5033755;28;20082;-63
2021/06/02 00:27:02;;;;;;;10.15;7.03;;;;;;;;;;5033218;28;20417;-63
2021/06/02 00:29:35;;;;;;;11.88;7.38;;;;;;;;;;5030024;28;22827;-63
2021/06/02 00:32:05;;;;;;;10.85;6.78;;;;;;;;;;5036415;28;20108;-63
2021/06/02 00:34:31;;;;;;;9.45;6.60;;;;;;;;;;5033864;28;20045;-63
2021/06/02 00:36:58;;;;;;;11.10;6.50;;;;;;;;;;5034619;28;20100;-63
2021/06/02 00:39:27;;;;;;;9.60;7.30;;;;;;;;;;5033233;28;20058;-63
2021/06/02 00:41:54;;;;;;;12.57;7.68;;;;;;;;;;5032017;28;20036;-63
2021/06/02 00:44:23;;;;;;;9.25;7.55;;;;;;;;;;5031878;28;20358;-63
2021/06/02 00:46:54;;;;;;;10.00;7.38;;;;;;;;;;5035279;28;20079;-63
2021/06/02 00:49:27;;;;;;;9.93;7.60;;;;;;;;;;5033254;28;20100;-63
2021/06/02 00:51:59;;;;;;;10.85;7.18;;;;;;;;;;5033483;28;20036;-63
2021/06/02 00:54:26;;;;;;;10.73;7.47;;;;;;;;;;5033284;28;20411;-63
2021/06/02 00:56:59;;;;;;;9.07;7.50;;;;;;;;;;5030894;28;20058;-63
2021/06/02 00:59:30;;;;;;;9.70;7.22;;;;;;;;;;5030627;28;20033;-63
2021/06/02 01:01:59;;;;;;;12.18;7.35;;;;;;;;;;5036622;28;20109;-63
2021/06/02 01:04:28;;;;;;;9.20;7.18;;;;;;;;;;5033014;28;20179;-63
2021/06/02 01:06:54;;;;;;;10.25;7.50;;;;;;;;;;5029710;28;20452;-63
2021/06/02 01:09:21;;;;;;;11.88;7.10;;;;;;;;;;5034363;28;20060;-63
2021/06/02 01:11:51;;;;;;;11.18;6.65;;;;;;;;;;5032246;28;20021;-63
2021/06/02 01:14:19;;;;;;;9.30;6.85;;;;;;;;;;5032596;28;20025;-63
2021/06/02 01:16:46;;;;;;;11.27;7.65;;;;;;;;;;5034506;28;20045;-63
2021/06/02 01:19:14;;;;;;;9.17;7.33;;;;;;;;;;5031917;28;20029;-63
2021/06/02 01:21:51;;;;;;;11.02;6.78;;;;;;;;;;5033103;28;20021;-63
2021/06/02 01:24:17;;;;;;;8.60;6.97;;;;;;;;;;5033189;28;20032;-63
2021/06/02 01:26:43;;;;;;;10.30;7.20;;;;;;;;;;5029206;28;20436;-63
2021/06/02 01:29:09;;;;;;;8.35;6.95;;;;;;;;;;5033692;28;20029;-64
2021/06/02 01:31:49;;;;;;;9.15;6.55;;;;;;;;;;5035293;28;20108;-63
2021/06/02 01:34:30;;;;;;;8.70;7.25;;;;;;;;;;5031720;28;20116;-63
2021/06/02 01:37:13;;;;;;;9.27;7.82;;;;;;;;;;5032944;28;20079;-63
2021/06/02 01:40:01;;;;;;;10.25;6.95;;;;;;;;;;5030348;28;20393;-63
2021/06/02 01:42:27;;;;;;;;;;;;;;;;;;5033229;28;20021;-63
2021/06/02 01:44:56;;;;;;;11.05;8.02;;;;;;;;;;5030708;28;19923;-63
2021/06/02 01:47:25;;;;;;;10.02;7.72;;;;;;;;;;5030094;28;20052;-64
2021/06/02 01:49:54;;;;;;;9.90;8.07;;;;;;;;;;5034956;28;20539;-64
2021/06/02 01:52:39;;;;;;;11.30;9.30;;;;;;;;;;5032216;28;20120;-64
2021/06/02 01:55:13;;;;;;;11.55;8.43;;;;;;;;;;5032136;28;20042;-64
2021/06/02 01:57:57;;;;;;;17.75;8.68;;;;;;;;;;5032543;28;20017;-63
2021/06/02 02:00:41;;;;;;;12.93;10.05;;;;;;;;;;5032479;28;20064;-64
2021/06/02 02:03:35;;;;;;;17.27;15.32;;;;;;;;;;5032175;28;20494;-64
2021/06/02 02:06:21;;;;;;;21.73;18.00;;;;;;;;;;5033094;28;20029;-64
2021/06/02 02:09:18;;;;;;;22.70;18.95;;;;;;;;;;4995679;28;20397;-64
2021/06/02 02:11:44;;;;;;;22.05;19.23;;;;;;;;;;4981484;28;20038;-64
2021/06/02 02:14:29;;;;;;;25.13;20.15;;;;;;;;;;5032209;28;20435;-64
2021/06/02 02:17:24;;;;;;;25.77;20.98;;;;;;;;;;5035309;28;20029;-63
2021/06/02 02:19:50;;;;;;;25.80;22.20;;;;;;;;;;4963044;28;20050;-64
2021/06/02 02:22:22;;;;;;;28.77;22.25;;;;;;;;;;5030808;28;20033;-64
2021/06/02 02:24:50;;;;;;;28.60;23.33;;;;;;;;;;5032019;28;20132;-64
2021/06/02 02:27:16;;;;;;;;;;;;;;;;;;5034331;28;20033;-64
2021/06/02 02:30:01;;;;;;;28.67;22.63;;;;;;;;;;5032811;28;19909;-65
2021/06/02 02:32:27;;;;;;;27.52;21.58;;;;;;;;;;5033306;28;20021;-64
2021/06/02 02:34:53;;;;;;;28.40;22.33;;;;;;;;;;5039520;28;20055;-63
2021/06/02 02:37:41;;;;;;;26.45;21.50;;;;;;;;;;5035931;28;20101;-64
2021/06/02 02:40:13;;;;;;;27.52;22.08;;;;;;;;;;5035656;28;20034;-63
2021/06/02 02:42:59;;;;;;;26.48;21.33;;;;;;;;;;5037029;28;20090;-64
2021/06/02 02:45:31;;;;;;;24.30;21.23;;;;;;;;;;5035629;28;20037;-64
2021/06/02 02:48:20;;;;;;;28.08;22.08;;;;;;;;;;5034486;28;20036;-64
2021/06/02 02:51:05;;;;;;;28.05;20.95;;;;;;;;;;5019360;28;20393;-64
2021/06/02 02:53:34;;;;;;;26.90;22.95;;;;;;;;;;5015610;28;20488;-64
2021/06/02 02:56:06;;;;;;;27.80;21.80;;;;;;;;;;5044202;28;20040;-63
2021/06/02 02:58:44;;;;;;;24.30;21.30;;;;;;;;;;5035990;28;20021;-64
2021/06/02 03:01:21;;;;;;;24.98;20.75;;;;;;;;;;5035072;28;20045;-64
2021/06/02 03:03:49;;;;;;;28.45;20.83;;;;;;;;;;5035684;28;20468;-64
2021/06/02 03:06:42;;;;;;;23.48;19.92;;;;;;;;;;5035245;28;20119;-64
2021/06/02 03:09:27;;;;;;;25.73;21.63;;;;;;;;;;5033061;28;20112;-63
2021/06/02 03:12:02;;;;;;;23.67;19.77;;;;;;;;;;5038588;28;20036;-64
2021/06/02 03:14:40;;;;;;;22.95;20.13;;;;;;;;;;5029809;28;20798;-64
2021/06/02 03:17:16;;;;;;;23.48;18.33;;;;;;;;;;5045996;28;20056;-64
2021/06/02 03:19:46;;;;;;;23.38;18.85;;;;;;;;;;5038016;28;20440;-64
2021/06/02 03:22:24;;;;;;;24.15;18.30;;;;;;;;;;5036253;28;20084;-63
2021/06/02 03:25:09;;;;;;;22.42;18.15;;;;;;;;;;5035839;28;20018;-63
2021/06/02 03:27:44;;;;;;;20.08;17.45;;;;;;;;;;5034840;28;20473;-64
2021/06/02 03:30:16;;;;;;;22.58;18.77;;;;;;;;;;5034419;28;20472;-64
2021/06/02 03:33:01;;;;;;;22.52;18.23;;;;;;;;;;5037364;28;20513;-64
2021/06/02 03:35:41;;;;;;;23.95;19.73;;;;;;;;;;5039908;28;20037;-64
2021/06/02 03:38:25;;;;;;;24.27;19.13;;;;;;;;;;5042689;28;20046;-63
2021/06/02 03:41:16;;;;;;;24.75;19.83;;;;;;;;;;5047131;28;20060;-63
2021/06/02 03:43:47;;;;;;;21.52;18.65;;;;;;;;;;5046570;28;20033;-64
2021/06/02 03:46:42;;;;;;;23.08;19.33;;;;;;;;;;5041811;28;20033;-63
2021/06/02 03:49:16;;;;;;;23.10;19.85;;;;;;;;;;5038151;28;20052;-63
2021/06/02 03:51:42;;;;;;;27.10;20.30;;;;;;;;;;5034682;28;20022;-62
2021/06/02 03:54:12;;;;;;;24.02;19.02;;;;;;;;;;5034434;28;20488;-64
2021/06/02 03:56:38;;;;;;;22.42;19.83;;;;;;;;;;5029323;28;20037;-63
2021/06/02 03:59:12;;;;;;;27.65;21.48;;;;;;;;;;5036351;28;20030;-65
2021/06/02 04:01:57;;;;;;;23.80;20.23;;;;;;;;;;5035158;28;20083;-64
2021/06/02 04:04:38;;;;;;;25.20;20.88;;;;;;;;;;5035372;28;20049;-64
2021/06/02 04:07:12;;;;;;;25.13;21.52;;;;;;;;;;5035622;28;20025;-64
2021/06/02 04:09:57;;;;;;;25.38;21.70;;;;;;;;;;5033533;28;20040;-64
2021/06/02 04:12:33;;;;;;;27.60;21.30;;;;;;;;;;5033668;28;20028;-64
2021/06/02 04:15:03;;;;;;;25.60;21.35;;;;;;;;;;5032608;28;20033;-64
2021/06/02 04:17:36;;;;;;;26.95;21.30;;;;;;;;;;5030226;28;20025;-64
2021/06/02 04:20:10;;;;;;;26.85;21.08;;;;;;;;;;5044918;28;20385;-64
2021/06/02 04:22:39;;;;;;;25.83;21.80;;;;;;;;;;5035883;28;20033;-64
2021/06/02 04:25:15;;;;;;;24.65;20.83;;;;;;;;;;5033432;28;20033;-65
2021/06/02 04:27:53;;;;;;;25.73;20.05;;;;;;;;;;5034662;28;20037;-65
2021/06/02 04:30:26;;;;;;;23.80;19.23;;;;;;;;;;5033263;28;20028;-64
2021/06/02 04:32:58;;;;;;;28.27;21.10;;;;;;;;;;5030747;28;20018;-64
2021/06/02 04:35:34;;;;;;;25.38;20.90;;;;;;;;;;5030068;28;20036;-64
2021/06/02 04:38:00;;;;;;;23.80;19.85;;;;;;;;;;5044086;28;20439;-65
2021/06/02 04:40:28;;;;;;;22.30;18.42;;;;;;;;;;5033475;28;20037;-64
2021/06/02 04:43:03;;;;;;;25.00;20.08;;;;;;;;;;5037201;28;20052;-65
2021/06/02 04:45:37;;;;;;;24.75;20.00;;;;;;;;;;5041423;28;20037;-64
2021/06/02 04:48:05;;;;;;;23.58;20.55;;;;;;;;;;5035233;28;20024;-64
2021/06/02 04:50:33;;;;;;;22.73;19.38;;;;;;;;;;5012778;28;20036;-64
2021/06/02 04:53:23;;;;;;;21.63;19.25;;;;;;;;;;5036623;28;20022;-64
2021/06/02 04:56:01;;;;;;;21.75;18.15;;;;;;;;;;5035301;28;20496;-64
2021/06/02 04:58:41;;;;;;;25.10;21.05;;;;;;;;;;5032947;28;20452;-64
2021/06/02 05:01:19;;;;;;;25.25;20.45;;;;;;;;;;5032844;28;20100;-64
2021/06/02 05:04:03;;;;;;;27.08;21.05;;;;;;;;;;5033241;28;20036;-64
2021/06/02 05:06:32;;;;;;;24.27;20.58;;;;;;;;;;5032405;28;20025;-64
2021/06/02 05:09:02;;;;;;;22.92;19.90;;;;;;;;;;5032221;28;20232;-65
2021/06/02 05:11:37;;;;;;;26.67;20.15;;;;;;;;;;5029821;28;20022;-61
2021/06/02 05:14:09;;;;;;;22.27;17.70;;;;;;;;;;5043716;28;20029;-62
2021/06/02 05:16:53;;;;;;;25.00;19.52;;;;;;;;;;5035379;28;20034;-61
2021/06/02 05:22:21;;;;;;;23.58;19.17;;;;;;;;;;5032619;28;20033;-61
2021/06/02 05:25:05;;;;;;;21.48;18.63;;;;;;;;;;5032541;28;20030;-67
2021/06/02 05:27:43;;;;;;;22.00;19.20;;;;;;;;;;5032409;28;20021;-67
2021/06/02 05:30:27;;;;;;;24.05;19.50;;;;;;;;;;5032499;28;20029;-67
2021/06/02 05:32:56;;;;;;;22.05;18.60;;;;;;;;;;5030836;28;20032;-67
2021/06/02 05:35:25;;;;;;;23.52;19.65;;;;;;;;;;5030890;28;20033;-67
2021/06/02 05:38:20;;;;;;;25.52;20.08;;;;;;;;;;5034242;28;20041;-67
2021/06/02 05:40:55;;;;;;;26.42;19.95;;;;;;;;;;5034481;28;20575;-67
2021/06/02 05:43:39;;;;;;;24.48;20.63;;;;;;;;;;5032937;28;20037;-67
2021/06/02 05:46:28;;;;;;;22.98;19.77;;;;;;;;;;5039238;28;20380;-67
2021/06/02 05:49:16;;;;;;;25.13;19.33;;;;;;;;;;5036441;28;20064;-67
2021/06/02 05:52:00;;;;;;;23.10;19.27;;;;;;;;;;5032439;28;20477;-67
2021/06/02 05:54:45;;;;;;;24.92;19.75;;;;;;;;;;5031649;28;20037;-67
2021/06/02 05:57:17;;;;;;;26.08;21.35;;;;;;;;;;5032308;28;20029;-67
2021/06/02 06:00:01;;;;;;;25.48;21.40;;;;;;;;;;5028981;28;20100;-67
2021/06/02 06:02:51;;;;;;;25.23;21.40;;;;;;;;;;5034691;28;20029;-66
2021/06/02 06:05:25;;;;;;;24.50;21.10;;;;;;;;;;5050631;28;20021;-67
2021/06/02 06:08:04;;;;;;;24.10;20.85;;;;;;;;;;5041283;28;20053;-67
2021/06/02 06:10:30;;;;;;;26.60;21.83;;;;;;;;;;5049198;28;20036;-67
2021/06/02 06:13:14;;;;;;;26.90;21.45;;;;;;;;;;5043955;28;20021;-67
2021/06/02 06:15:55;;;;;;;26.92;21.88;;;;;;;;;;5038271;28;20108;-67
2021/06/02 06:18:43;;;;;;;24.08;21.27;;;;;;;;;;5038253;28;20028;-67
2021/06/02 06:21:09;;;;;;;;;;;;;;;;;;5039209;28;20036;-68
2021/06/02 06:23:54;;;;;;;23.77;19.83;;;;;;;;;;5033049;28;19913;-68
2021/06/02 06:26:26;;;;;;;23.67;20.10;;;;;;;;;;5037310;28;20547;-67
2021/06/02 06:28:56;;;;;;;20.88;17.60;;;;;;;;;;5041229;28;20477;-68
2021/06/02 06:31:22;;;;;;;21.23;18.65;;;;;;;;;;5038683;28;20063;-67
2021/06/02 06:33:50;;;;;;;20.02;16.55;;;;;;;;;;5038724;28;20077;-67
2021/06/02 06:36:18;;;;;;;21.05;18.52;;;;;;;;;;5038606;28;20041;-68
2021/06/02 06:38:43;;;;;;;23.35;18.55;;;;;;;;;;5033727;28;20042;-67
2021/06/02 06:41:12;;;;;;;22.45;19.98;;;;;;;;;;5038944;28;20021;-67
2021/06/02 06:43:39;;;;;;;22.33;19.85;;;;;;;;;;5039675;28;20432;-67
2021/06/02 06:46:05;;;;;;;24.30;21.25;;;;;;;;;;5038662;28;20025;-68
2021/06/02 06:48:32;;;;;;;24.42;19.70;;;;;;;;;;5037379;28;20033;-67
2021/06/02 06:51:01;;;;;;;23.35;19.00;;;;;;;;;;5037160;28;20518;-68
2021/06/02 06:53:28;;;;;;;24.35;18.83;;;;;;;;;;5035282;28;20369;-67
2021/06/02 06:55:58;;;;;;;21.42;17.48;;;;;;;;;;5041347;28;20037;-67
2021/06/02 06:58:24;;;;;;;20.13;16.77;;;;;;;;;;5038437;28;20032;-68
2021/06/02 07:00:51;;;;;;;19.65;17.40;;;;;;;;;;5037667;28;20167;-68
2021/06/02 07:03:18;;;;;;;21.38;16.50;;;;;;;;;;5039670;28;20120;-67
2021/06/02 07:05:44;;;;;;;20.55;15.88;;;;;;;;;;5035190;28;20140;-67
2021/06/02 07:08:11;;;;;;;17.85;15.95;;;;;;;;;;5039049;28;20022;-68
2021/06/02 07:10:37;;;;;;;24.17;16.20;;;;;;;;;;5038969;28;20110;-68
2021/06/02 07:13:09;;;;;;;18.02;15.55;;;;;;;;;;5033938;28;20416;-68
2021/06/02 07:15:35;;;;;;;16.60;13.98;;;;;;;;;;5028792;28;20112;-67
2021/06/02 07:18:01;;;;;;;18.40;15.63;;;;;;;;;;5034708;28;20035;-68
2021/06/02 07:20:29;;;;;;;17.48;15.57;;;;;;;;;;5028931;28;20036;-68
2021/06/02 07:22:56;;;;;;;18.05;14.27;;;;;;;;;;5038157;28;20018;-67
2021/06/02 07:25:23;;;;;;;19.52;15.73;;;;;;;;;;5034878;28;20029;-68
2021/06/02 07:27:50;;;;;;;20.52;15.57;;;;;;;;;;5035048;28;20025;-67
2021/06/02 07:30:17;;;;;;;17.95;16.08;;;;;;;;;;5035120;28;20059;-68
2021/06/02 07:32:43;;;;;;;21.75;16.48;;;;;;;;;;5032027;28;20026;-67
2021/06/02 07:35:15;;;;;;;18.48;15.70;;;;;;;;;;5035271;28;20041;-68
2021/06/02 07:37:49;;;;;;;18.83;15.85;;;;;;;;;;5036924;28;20021;-67
2021/06/02 07:40:19;;;;;;;18.50;16.20;;;;;;;;;;5034819;28;20457;-68
2021/06/02 07:42:45;;;;;;;24.20;16.50;;;;;;;;;;5035718;28;20022;-67
2021/06/02 07:45:11;;;;;;;19.77;16.35;;;;;;;;;;5034661;28;20468;-67
2021/06/02 07:47:40;;;;;;;19.58;17.45;;;;;;;;;;5030305;28;20018;-68
2021/06/02 07:50:06;;;;;;;23.95;18.38;;;;;;;;;;5033328;28;20021;-68
2021/06/02 07:52:33;;;;;;;21.38;17.60;;;;;;;;;;5036483;28;20435;-68
2021/06/02 07:54:59;;;;;;;21.13;17.73;;;;;;;;;;5034570;28;20477;-68
2021/06/02 07:57:25;;;;;;;19.75;17.40;;;;;;;;;;5034314;28;20166;-67
2021/06/02 07:59:51;;;;;;;20.08;16.17;;;;;;;;;;5032444;28;20030;-68
2021/06/02 08:02:17;;;;;;;19.63;15.88;;;;;;;;;;5034157;28;20021;-68
2021/06/02 08:04:43;;;;;;;18.15;15.93;;;;;;;;;;5035499;28;20032;-67
2021/06/02 08:07:10;;;;;;;17.13;15.32;;;;;;;;;;5033935;28;20030;-67
2021/06/02 08:09:36;;;;;;;20.75;16.88;;;;;;;;;;5033857;28;20026;-67
2021/06/02 08:12:05;;;;;;;24.98;19.33;;;;;;;;;;5033675;28;20028;-67
2021/06/02 08:14:31;;;;;;;21.88;18.70;;;;;;;;;;5014350;28;20493;-67
2021/06/02 08:16:57;;;;;;;25.42;19.85;;;;;;;;;;5037511;28;20053;-67
2021/06/02 08:19:23;;;;;;;19.55;17.17;;;;;;;;;;5032974;28;20030;-68
2021/06/02 08:21:49;;;;;;;19.25;16.92;;;;;;;;;;5033772;28;20026;-67
2021/06/02 08:24:16;;;;;;;19.88;17.45;;;;;;;;;;5033572;28;20120;-67
2021/06/02 08:26:45;;;;;;;20.10;17.35;;;;;;;;;;5030598;28;20474;-67
2021/06/02 08:29:11;;;;;;;19.02;17.00;;;;;;;;;;5034163;28;20030;-67
2021/06/02 08:31:37;;;;;;;18.20;15.20;;;;;;;;;;5034809;28;20051;-67
2021/06/02 08:34:03;;;;;;;18.85;14.98;;;;;;;;;;5033279;28;20037;-67
2021/06/02 08:36:30;;;;;;;19.17;16.00;;;;;;;;;;5033871;28;20524;-67
2021/06/02 08:38:56;;;;;;;17.30;14.95;;;;;;;;;;5032271;28;20041;-67
2021/06/02 08:41:22;;;;;;;17.83;15.88;;;;;;;;;;5032018;28;20460;-67
2021/06/02 08:43:48;;;;;;;19.50;13.93;;;;;;;;;;5035772;28;20492;-67
2021/06/02 08:46:15;;;;;;;16.63;13.00;;;;;;;;;;5033265;28;20038;-67
2021/06/02 08:48:44;;;;;;;17.38;14.55;;;;;;;;;;5033187;28;20421;-67
2021/06/02 08:51:12;;;;;;;15.93;14.00;;;;;;;;;;5033482;28;20096;-67
2021/06/02 08:53:38;;;;;;;20.60;15.43;;;;;;;;;;5035930;28;20029;-67
2021/06/02 08:56:05;;;;;;;17.42;15.30;;;;;;;;;;5035292;28;20029;-68
2021/06/02 08:58:31;;;;;;;18.08;14.82;;;;;;;;;;5046089;28;20026;-67
2021/06/02 09:00:57;;;;;;;17.20;13.88;;;;;;;;;;5030109;28;20040;-67
2021/06/02 09:03:24;;;;;;;20.23;14.98;;;;;;;;;;5033045;28;20021;-67
2021/06/02 09:05:50;;;;;;;17.67;15.68;;;;;;;;;;5030958;28;20055;-67
2021/06/02 09:08:16;;;;;;;19.90;15.55;;;;;;;;;;5032146;28;20397;-67
2021/06/02 09:10:46;;;;;;;22.58;15.27;;;;;;;;;;5036537;28;20017;-67
2021/06/02 09:13:19;;;;;;;19.33;15.90;;;;;;;;;;5033135;28;20034;-67
2021/06/02 09:15:46;;;;;;;19.38;15.65;;;;;;;;;;5032927;28;20040;-67
2021/06/02 09:18:17;;;;;;;26.67;16.67;;;;;;;;;;5032259;28;20112;-67
2021/06/02 09:20:46;;;;;;;19.27;15.18;;;;;;;;;;5029414;28;20030;-67
2021/06/02 09:23:32;;;;;;;17.95;14.90;;;;;;;;;;5033398;28;20112;-67
2021/06/02 09:26:14;;;;;;;18.85;15.05;;;;;;;;;;5036307;28;20021;-67
2021/06/02 09:28:46;;;;;;;17.73;15.00;;;;;;;;;;5035654;28;20025;-67
2021/06/02 09:31:31;;;;;;;19.63;15.35;;;;;;;;;;5033361;28;20025;-67
2021/06/02 09:33:58;;;;;;;18.13;14.93;;;;;;;;;;5032357;28;20030;-67
2021/06/02 09:36:25;;;;;;;17.70;13.40;;;;;;;;;;5031795;28;20037;-67
2021/06/02 09:38:52;;;;;;;15.00;12.70;;;;;;;;;;5030342;28;20303;-67
2021/06/02 09:41:18;;;;;;;14.77;12.03;;;;;;;;;;5032227;28;20026;-66
2021/06/02 09:43:44;;;;;;;15.23;12.55;;;;;;;;;;5033733;28;20029;-67
2021/06/02 09:46:13;;;;;;;15.13;12.50;;;;;;;;;;5032019;28;20026;-67
2021/06/02 09:48:40;;;;;;;14.77;12.77;;;;;;;;;;5032513;28;20037;-67
2021/06/02 09:51:06;;;;;;;15.95;12.75;;;;;;;;;;5032529;28;20017;-67
2021/06/02 09:53:32;;;;;;;13.25;11.80;;;;;;;;;;5027991;28;20385;-66
2021/06/02 09:55:58;;;;;;;15.32;11.15;;;;;;;;;;5035524;28;20038;-67
2021/06/02 09:58:24;;;;;;;14.13;10.43;;;;;;;;;;5031967;28;20030;-67
2021/06/02 10:00:54;;;;;;;18.95;13.57;;;;;;;;;;5033812;28;20060;-66
2021/06/02 10:03:26;;;;;;;15.13;12.55;;;;;;;;;;5032105;28;20021;-67
2021/06/02 10:05:53;;;;;;;17.02;14.05;;;;;;;;;;5031330;28;20037;-67
2021/06/02 10:08:27;;;;;;;16.70;13.68;;;;;;;;;;5030114;28;20488;-67
2021/06/02 10:10:53;;;;;;;16.90;13.40;;;;;;;;;;5031443;28;20052;-66
2021/06/02 10:13:21;;;;;;;16.58;12.88;;;;;;;;;;5029950;28;20159;-67
2021/06/02 10:15:48;;;;;;;15.68;13.20;;;;;;;;;;5029410;28;20037;-67
2021/06/02 10:18:23;;;;;;;18.27;11.55;;;;;;;;;;5030701;28;20151;-66
2021/06/02 10:21:01;;;;;;;13.80;10.75;;;;;;;;;;5026875;28;20108;-64
2021/06/02 10:23:28;;;;;;;14.45;10.45;;;;;;;;;;5026713;28;20022;-65
2021/06/02 10:25:54;;;;;;;11.82;9.45;;;;;;;;;;5041712;28;20021;-64
2021/06/02 10:28:20;;;;;;;12.35;9.68;;;;;;;;;;5032123;28;20358;-64
2021/06/02 10:30:47;;;;;;;11.82;9.07;;;;;;;;;;5035846;28;20104;-64
2021/06/02 10:33:14;;;;;;;11.15;8.45;;;;;;;;;;5042170;28;20051;-64
2021/06/02 10:35:40;;;;;;;13.07;8.40;;;;;;;;;;5027217;28;20041;-64
2021/06/02 10:38:06;;;;;;;13.27;8.57;;;;;;;;;;5033693;28;20053;-64
2021/06/02 10:40:33;;;;;;;11.50;8.15;;;;;;;;;;5032515;28;20029;-64
2021/06/02 10:43:06;;;;;;;10.05;8.10;;;;;;;;;;5032969;28;20159;-64
2021/06/02 10:45:33;;;;;;;11.60;8.00;;;;;;;;;;5032311;28;20560;-64
2021/06/02 10:48:00;;;;;;;15.93;8.32;;;;;;;;;;5032257;28;20055;-64
2021/06/02 10:50:34;;;;;;;12.73;9.55;;;;;;;;;;5031349;28;20033;-64
2021/06/02 10:53:01;;;;;;;12.07;9.77;;;;;;;;;;5037305;28;20025;-64
2021/06/02 10:55:36;;;;;;;13.23;9.70;;;;;;;;;;5033830;28;20520;-64
2021/06/02 10:58:35;;;;;;;15.73;9.18;;;;;;;;;;5031085;28;20047;-64
2021/06/02 11:01:06;;;;;;;11.98;8.52;;;;;;;;;;5003647;28;20083;-64
2021/06/02 11:03:33;;;;;;;13.32;8.70;;;;;;;;;;5033724;28;20025;-64
2021/06/02 11:06:14;;;;;;;10.27;8.57;;;;;;;;;;5025851;28;20024;-58
2021/06/02 11:08:53;;;;;;;11.00;8.48;;;;;;;;;;5015524;28;20052;-59
2021/06/02 11:11:25;;;;;;;10.98;9.65;;;;;;;;;;5033682;28;20033;-58
2021/06/02 11:14:11;;;;;;;10.48;6.93;;;;;;;;;;5035890;28;20029;-58
2021/06/02 11:16:37;;;;;;;14.75;10.32;;;;;;;;;;5015003;28;20087;-58
2021/06/02 11:19:16;;;;;;;14.20;9.77;;;;;;;;;;5033143;28;20021;-58
2021/06/02 11:21:54;;;;;;;12.07;9.45;;;;;;;;;;5034072;28;20496;-58
2021/06/02 11:24:32;;;;;;;11.18;9.27;;;;;;;;;;5039479;28;20124;-59
2021/06/02 11:27:11;;;;;;;9.90;7.68;;;;;;;;;;5032558;28;20031;-58
2021/06/02 11:29:37;;;;;;;10.02;7.47;;;;;;;;;;5033383;28;20025;-58
2021/06/02 11:32:15;;;;;;;10.15;7.30;;;;;;;;;;5035524;28;20029;-58
2021/06/02 11:34:42;;;;;;;11.27;6.80;;;;;;;;;;5037700;28;20120;-58
2021/06/02 11:37:09;;;;;;;14.38;8.70;;;;;;;;;;5029966;28;20123;-58
2021/06/02 11:39:37;;;;;;;12.50;9.95;;;;;;;;;;5042124;28;20366;-58
2021/06/02 11:42:03;;;;;;;;;;;;;;;;;;5033782;28;20025;-58
2021/06/02 11:44:32;;;;;;;8.95;6.90;;;;;;;;;;5030852;28;19962;-58
2021/06/02 11:46:58;;;;;;;12.93;7.45;;;;;;;;;;5037835;28;20041;-59
2021/06/02 11:49:24;;;;;;;10.45;7.70;;;;;;;;;;5034225;28;20069;-60
2021/06/02 11:51:50;;;;;;;10.02;8.20;;;;;;;;;;5033049;28;20076;-60
2021/06/02 11:54:16;;;;;;;11.98;8.95;;;;;;;;;;5034473;28;20475;-60
2021/06/02 11:56:42;;;;;;;9.95;7.00;;;;;;;;;;5031708;28;20060;-60
2021/06/02 11:59:08;;;;;;;9.57;6.63;;;;;;;;;;5034390;28;20083;-60
2021/06/02 12:01:34;;;;;;;10.80;8.80;;;;;;;;;;5035459;28;20064;-59
2021/06/02 12:04:00;;;;;;;8.63;6.50;;;;;;;;;;5034303;28;20022;-60
2021/06/02 12:06:30;;;;;;;9.68;6.82;;;;;;;;;;5034306;28;20061;-60
2021/06/02 12:08:56;;;;;;;11.02;7.15;;;;;;;;;;5032793;28;20381;-64
2021/06/02 12:11:22;;;;;;;12.20;8.63;;;;;;;;;;5031976;28;20036;-61
2021/06/02 12:13:48;;;;;;;13.25;9.18;;;;;;;;;;5035813;28;20549;-60
2021/06/02 12:16:22;;;;;;;11.68;6.15;;;;;;;;;;5033948;28;20041;-60
2021/06/02 12:18:50;;;;;;;15.88;9.27;;;;;;;;;;5033796;28;20105;-60
2021/06/02 12:21:22;;;;;;;9.82;7.78;;;;;;;;;;5033496;28;20037;-60
2021/06/02 12:23:58;;;;;;;9.40;6.50;;;;;;;;;;5031622;28;20138;-60
2021/06/02 12:26:24;;;;;;;9.48;7.28;;;;;;;;;;5031856;28;20037;-60
2021/06/02 12:28:51;;;;;;;8.73;6.82;;;;;;;;;;5037406;28;20029;-60
2021/06/02 12:31:36;;;;;;;10.98;8.63;;;;;;;;;;5038759;28;20490;-60
2021/06/02 12:34:03;;;;;;;10.48;7.25;;;;;;;;;;5038222;28;20071;-60
2021/06/02 12:36:31;;;;;;;9.40;7.47;;;;;;;;;;5033516;28;20044;-60
2021/06/02 12:38:57;;;;;;;8.82;6.47;;;;;;;;;;5032400;28;20516;-60
2021/06/02 12:41:24;;;;;;;10.00;6.57;;;;;;;;;;5030186;28;20096;-60
2021/06/02 12:43:50;;;;;;;9.00;6.70;;;;;;;;;;5048772;28;20196;-60
2021/06/02 12:46:17;;;;;;;11.35;8.18;;;;;;;;;;5038920;28;20163;-60
2021/06/02 12:48:43;;;;;;;10.25;6.95;;;;;;;;;;5037874;28;20495;-60
2021/06/02 12:51:11;;;;;;;11.25;7.35;;;;;;;;;;5031222;28;20387;-63
2021/06/02 12:53:37;;;;;;;;;;;;;;;;;;5014561;28;20439;-62
2021/06/02 12:56:04;;;;;;;9.23;5.55;;;;;;;;;;5036436;28;19960;-61
2021/06/02 12:58:32;;;;;;;10.50;6.85;;;;;;;;;;5034806;28;20076;-63
2021/06/02 13:01:02;;;;;;;9.98;7.30;;;;;;;;;;5032997;28;20041;-63
2021/06/02 13:03:28;;;;;;;7.57;5.40;;;;;;;;;;5033241;28;20021;-64
2021/06/02 13:05:55;;;;;;;11.95;6.65;;;;;;;;;;5031232;28;20036;-63
2021/06/02 13:08:25;;;;;;;17.48;6.13;;;;;;;;;;5031202;28;20029;-61
2021/06/02 13:10:51;;;;;;;9.15;6.68;;;;;;;;;;5029051;28;20511;-60
2021/06/02 13:13:18;;;;;;;8.02;5.30;;;;;;;;;;5037544;28;20029;-60
2021/06/02 13:15:44;;;;;;;10.38;7.15;;;;;;;;;;5032137;28;20045;-60
2021/06/02 13:18:24;;;;;;;10.60;6.45;;;;;;;;;;5030408;28;20025;-62
2021/06/02 13:20:50;;;;;;;9.82;7.22;;;;;;;;;;5019104;28;20037;-62
2021/06/02 13:23:16;;;;;;;7.97;6.53;;;;;;;;;;5031302;28;20033;-61
2021/06/02 13:25:42;;;;;;;10.20;6.28;;;;;;;;;;5032706;28;20034;-61
2021/06/02 13:28:08;;;;;;;8.35;6.70;;;;;;;;;;5030866;28;20018;-61
2021/06/02 13:30:42;;;;;;;8.38;5.10;;;;;;;;;;5029173;28;20057;-60
2021/06/02 13:33:09;;;;;;;9.07;5.50;;;;;;;;;;5030644;28;20063;-60
2021/06/02 13:35:35;;;;;;;9.50;7.10;;;;;;;;;;5026423;28;20038;-60
2021/06/02 13:38:01;;;;;;;10.05;6.63;;;;;;;;;;5034552;28;20037;-60
2021/06/02 13:40:32;;;;;;;8.85;6.25;;;;;;;;;;5031144;28;20083;-60
2021/06/02 13:43:14;;;;;;;8.70;6.88;;;;;;;;;;5030820;28;20479;-59
2021/06/02 13:45:40;;;;;;;7.78;5.60;;;;;;;;;;5032046;28;20435;-60
2021/06/02 13:48:25;;;;;;;8.68;6.05;;;;;;;;;;5032075;28;20104;-60
2021/06/02 13:50:51;;;;;;;9.50;5.88;;;;;;;;;;5017055;28;20389;-60
2021/06/02 13:53:18;;;;;;;9.30;4.13;;;;;;;;;;5030908;28;20099;-60
2021/06/02 13:55:54;;;;;;;10.02;6.10;;;;;;;;;;5033530;28;20029;-60
2021/06/02 13:58:20;;;;;;;7.90;5.70;;;;;;;;;;5032120;28;20030;-60
2021/06/02 14:00:46;;;;;;;7.72;5.95;;;;;;;;;;5032271;28;20037;-60
2021/06/02 14:03:12;;;;;;;7.90;5.70;;;;;;;;;;5032161;28;20112;-60
2021/06/02 14:05:38;;;;;;;8.07;5.07;;;;;;;;;;5028440;28;20068;-60
2021/06/02 14:08:04;;;;;;;7.35;5.07;;;;;;;;;;5034071;28;20021;-59
2021/06/02 14:10:31;;;;;;;7.45;4.85;;;;;;;;;;5040015;28;20493;-60
2021/06/02 14:12:59;;;;;;;7.97;6.00;;;;;;;;;;5036165;28;20105;-60
2021/06/02 14:15:31;;;;;;;8.40;5.72;;;;;;;;;;5032188;28;20436;-60
2021/06/02 14:17:57;;;;;;;7.95;5.35;;;;;;;;;;5030934;28;20099;-60
2021/06/02 14:20:22;;;;;;;6.68;5.05;;;;;;;;;;5029864;28;20464;-60
2021/06/02 14:22:48;;;;;;;8.25;4.53;;;;;;;;;;5035679;28;20026;-60
2021/06/02 14:25:17;;;;;;;8.02;5.10;;;;;;;;;;5036199;28;20527;-60
2021/06/02 14:27:45;;;;;;;5.80;4.43;;;;;;;;;;5037334;28;20029;-60
2021/06/02 14:30:12;;;;;;;5.72;4.30;;;;;;;;;;5035689;28;20530;-59
2021/06/02 14:32:38;;;;;;;9.10;4.72;;;;;;;;;;5030633;28;20022;-60
2021/06/02 14:35:04;;;;;;;3.88;3.40;;;;;;;;;;5038398;28;20477;-60
2021/06/02 14:37:30;;;;;;;6.70;3.95;;;;;;;;;;5037805;28;20040;-59
2021/06/02 14:39:56;;;;;;;5.60;4.60;;;;;;;;;;5039815;28;20052;-60
2021/06/02 14:42:22;;;;;;;6.20;3.58;;;;;;;;;;5044680;28;20468;-60
2021/06/02 14:44:49;;;;;;;10.73;4.47;;;;;;;;;;5030947;28;20438;-60
2021/06/02 14:47:15;;;;;;;10.70;4.00;;;;;;;;;;5034729;28;20026;-60
2021/06/02 14:49:41;;;;;;;6.25;4.20;;;;;;;;;;5035781;28;20017;-59
2021/06/02 14:52:07;;;;;;;7.60;4.55;;;;;;;;;;5035804;28;20497;-59
2021/06/02 14:54:33;;;;;;;5.82;4.47;;;;;;;;;;5034555;28;20034;-60